createdAt,value
2018-09-12T00:02:05.279Z,74.24
2018-09-12T00:04:34.688Z,74.25
2018-09-12T00:07:03.488Z,74.01
2018-09-12T00:09:34.284Z,73.36
2018-09-12T00:12:03.104Z,72.69
2018-09-12T00:14:31.880Z,73.92
2018-09-12T00:17:00.773Z,75.92
2018-09-12T00:19:29.527Z,73.36
2018-09-12T00:21:58.366Z,74.49
2018-09-12T00:24:27.208Z,74.32
2018-09-12T00:26:55.992Z,73.20
2018-09-12T00:29:24.764Z,74.12
2018-09-12T00:31:53.525Z,72.88
2018-09-12T00:34:22.280Z,72.94
2018-09-12T00:36:51.035Z,72.63
2018-09-12T00:39:20.073Z,72.23
2018-09-12T00:41:48.828Z,71.86
2018-09-12T00:44:17.583Z,75.13
2018-09-12T00:46:46.336Z,73.74
2018-09-12T00:49:15.143Z,73.31
2018-09-12T00:51:43.891Z,74.20
2018-09-12T00:54:15.479Z,75.43
2018-09-12T00:56:44.236Z,74.11
2018-09-12T00:59:12.988Z,74.10
2018-09-12T01:01:41.848Z,72.95
2018-09-12T01:04:10.609Z,73.38
2018-09-12T01:06:39.355Z,72.62
2018-09-12T01:09:08.108Z,73.01
2018-09-12T01:11:36.852Z,73.02
2018-09-12T01:14:05.611Z,74.54
2018-09-12T01:16:35.305Z,73.82
2018-09-12T01:19:04.527Z,74.73
2018-09-12T01:21:33.271Z,75.97
2018-09-12T01:24:02.130Z,76.45
2018-09-12T01:26:30.903Z,76.93
2018-09-12T01:28:59.769Z,75.43
2018-09-12T01:31:28.689Z,76.52
2018-09-12T01:33:58.062Z,74.36
2018-09-12T01:36:26.981Z,76.72
2018-09-12T01:38:55.772Z,76.79
2018-09-12T01:41:24.546Z,74.55
2018-09-12T01:43:53.305Z,76.07
2018-09-12T01:46:22.287Z,75.28
2018-09-12T01:48:51.061Z,75.37
2018-09-12T01:51:19.836Z,74.84
2018-09-12T01:53:48.574Z,75.17
2018-09-12T01:56:17.344Z,74.93
2018-09-12T01:58:46.320Z,75.66
2018-09-12T02:01:15.251Z,77.16
2018-09-12T02:03:43.983Z,75.29
2018-09-12T02:06:12.771Z,75.67
2018-09-12T02:08:41.596Z,76.17
2018-09-12T02:11:10.344Z,74.78
2018-09-12T02:13:39.099Z,74.60
2018-09-12T02:16:07.890Z,74.78
2018-09-12T02:18:36.633Z,74.58
2018-09-12T02:21:05.520Z,75.44
2018-09-12T02:23:34.449Z,74.64
2018-09-12T02:26:03.396Z,76.30
2018-09-12T02:28:32.328Z,76.34
2018-09-12T02:31:01.159Z,76.34
2018-09-12T02:33:29.973Z,76.20
2018-09-12T02:36:04.167Z,74.79
2018-09-12T02:38:32.965Z,75.61
2018-09-12T02:41:01.852Z,75.67
2018-09-12T02:43:30.751Z,76.36
2018-09-12T02:46:00.187Z,76.79
2018-09-12T02:48:28.933Z,76.41
2018-09-12T02:50:57.671Z,75.71
2018-09-12T02:53:26.400Z,75.71
2018-09-12T02:55:55.256Z,75.51
2018-09-12T02:58:24.071Z,75.76
2018-09-12T03:00:52.875Z,77.99
2018-09-12T03:03:22.037Z,78.09
2018-09-12T03:05:50.897Z,78.16
2018-09-12T03:08:19.709Z,78.99
2018-09-12T03:10:48.472Z,79.44
2018-09-12T03:13:17.309Z,78.81
2018-09-12T03:15:46.092Z,79.38
2018-09-12T03:18:14.845Z,78.95
2018-09-12T03:20:43.884Z,80.32
2018-09-12T03:23:12.580Z,81.12
2018-09-12T03:25:41.382Z,80.41
2018-09-12T03:28:10.244Z,79.25
2018-09-12T03:30:38.994Z,78.42
2018-09-12T03:33:07.749Z,78.12
2018-09-12T03:35:36.481Z,79.12
2018-09-12T03:38:05.287Z,79.25
2018-09-12T03:40:34.056Z,79.48
2018-09-12T03:43:02.829Z,79.07
2018-09-12T03:45:31.576Z,79.21
2018-09-12T03:48:00.459Z,78.79
2018-09-12T03:50:29.358Z,78.94
2018-09-12T03:52:58.116Z,79.52
2018-09-12T03:55:26.888Z,78.99
2018-09-12T03:57:55.650Z,79.08
2018-09-12T04:00:24.432Z,80.12
2018-09-12T04:02:53.306Z,80.04
2018-09-12T04:05:22.096Z,79.23
2018-09-12T04:07:50.848Z,80.02
2018-09-12T04:10:19.602Z,79.35
2018-09-12T04:12:48.369Z,79.55
2018-09-12T04:15:17.304Z,81.13
2018-09-12T04:17:46.068Z,81.86
2018-09-12T04:20:14.832Z,80.53
2018-09-12T04:22:43.649Z,80.92
2018-09-12T04:25:12.395Z,81.07
2018-09-12T04:27:41.157Z,81.18
2018-09-12T04:30:10.000Z,82.69
2018-09-12T04:32:38.825Z,83.64
2018-09-12T04:35:07.607Z,82.18
2018-09-12T04:37:36.384Z,81.50
2018-09-12T04:40:05.216Z,81.80
2018-09-12T04:42:33.996Z,83.05
2018-09-12T04:45:04.079Z,83.52
2018-09-12T04:47:33.579Z,82.87
2018-09-12T04:50:02.846Z,83.36
2018-09-12T04:52:31.637Z,82.91
2018-09-12T04:55:00.860Z,82.81
2018-09-12T04:57:29.793Z,83.00
2018-09-12T04:59:59.407Z,84.81
2018-09-12T05:02:28.459Z,85.36
2018-09-12T05:05:02.374Z,83.96
2018-09-12T05:07:31.523Z,83.38
2018-09-12T05:10:00.702Z,83.55
2018-09-12T05:12:30.413Z,83.94
2018-09-12T05:14:59.614Z,83.26
2018-09-12T05:17:28.384Z,83.04
2018-09-12T05:19:58.508Z,83.28
2018-09-12T05:22:29.163Z,85.54
2018-09-12T05:24:57.950Z,85.52
2018-09-12T05:27:26.743Z,85.62
2018-09-12T05:29:55.487Z,86.57
2018-09-12T05:32:26.437Z,86.54
2018-09-12T05:34:55.404Z,86.54
2018-09-12T05:37:24.273Z,85.83
2018-09-12T05:39:53.230Z,86.23
2018-09-12T05:42:22.029Z,86.54
2018-09-12T05:44:50.782Z,85.66
2018-09-12T05:47:19.577Z,86.49
2018-09-12T05:49:48.335Z,84.55
2018-09-12T05:52:17.172Z,82.94
2018-09-12T05:54:45.936Z,84.60
2018-09-12T05:57:14.830Z,85.43
2018-09-12T05:59:43.666Z,85.42
2018-09-12T06:02:12.585Z,85.46
2018-09-12T06:04:41.345Z,84.12
2018-09-12T06:07:10.236Z,82.55
2018-09-12T06:09:38.884Z,81.42
2018-09-12T06:12:07.725Z,80.94
2018-09-12T06:14:36.490Z,80.55
2018-09-12T06:17:05.309Z,80.94
2018-09-12T06:19:34.087Z,81.36
2018-09-12T06:22:02.856Z,80.29
2018-09-12T06:24:31.738Z,79.43
2018-09-12T06:27:00.592Z,78.93
2018-09-12T06:29:29.349Z,80.13
2018-09-12T06:31:58.137Z,78.93
2018-09-12T06:34:26.892Z,77.41
2018-09-12T06:36:55.645Z,77.02
2018-09-12T06:39:24.449Z,76.61
2018-09-12T06:41:53.297Z,76.50
2018-09-12T06:44:22.106Z,74.04
2018-09-12T06:46:50.868Z,70.33
2018-09-12T06:49:19.789Z,65.31
2018-09-12T06:51:48.999Z,60.16
2018-09-12T06:54:17.872Z,55.75
2018-09-12T06:56:46.648Z,55.17
2018-09-12T06:59:15.565Z,54.18
2018-09-12T07:01:44.561Z,53.52
2018-09-12T07:04:13.583Z,53.42
2018-09-12T07:06:42.358Z,52.70
2018-09-12T07:09:11.740Z,54.77
2018-09-12T07:11:40.499Z,53.74
2018-09-12T07:14:09.321Z,50.87
2018-09-12T07:16:38.050Z,48.57
2018-09-12T07:19:06.839Z,46.91
2018-09-12T07:21:35.588Z,45.44
2018-09-12T07:24:04.390Z,43.65
2018-09-12T07:26:33.319Z,42.99
2018-09-12T07:29:02.108Z,42.60
2018-09-12T07:31:30.880Z,43.04
2018-09-12T07:33:59.697Z,41.03
2018-09-12T07:36:28.468Z,40.61
2018-09-12T07:38:57.393Z,40.46
2018-09-12T07:41:26.247Z,39.95
2018-09-12T07:43:55.091Z,40.49
2018-09-12T07:46:23.909Z,39.71
2018-09-12T07:48:52.828Z,40.57
2018-09-12T07:51:21.572Z,41.93
2018-09-12T07:53:50.336Z,42.58
2018-09-12T07:56:19.191Z,43.72
2018-09-12T07:58:47.881Z,42.82
2018-09-12T08:01:16.681Z,43.18
2018-09-12T08:03:45.578Z,44.12
2018-09-12T08:06:14.380Z,43.66
2018-09-12T15:57:53.241Z,35.75
2018-09-12T16:00:22.317Z,34.38
2018-09-12T16:02:51.489Z,34.10
2018-09-12T16:05:20.692Z,33.48
2018-09-12T16:07:49.595Z,33.80
2018-09-12T16:10:18.514Z,34.03
2018-09-12T16:12:47.531Z,34.03
2018-09-12T16:15:16.565Z,34.75
2018-09-12T16:17:45.544Z,34.95
2018-09-12T16:20:14.436Z,35.47
2018-09-12T16:22:43.316Z,37.96
2018-09-12T16:25:12.272Z,37.55
2018-09-12T16:27:41.328Z,38.25
2018-09-12T16:30:10.255Z,38.87
2018-09-12T16:32:39.262Z,38.93
2018-09-12T16:35:08.340Z,40.78
2018-09-12T16:37:37.256Z,40.92
2018-09-12T16:40:06.331Z,42.24
2018-09-12T16:42:35.708Z,43.51
2018-09-12T16:45:04.773Z,43.89
2018-09-12T16:47:34.407Z,45.09
2018-09-12T16:50:03.651Z,47.81
2018-09-12T16:52:32.804Z,46.94
2018-09-12T16:55:05.295Z,48.03
2018-09-12T16:57:34.185Z,48.15
2018-09-12T17:00:03.103Z,46.96
2018-09-12T17:02:32.059Z,46.84
2018-09-12T17:05:01.260Z,47.32
2018-09-12T17:07:30.386Z,46.52
2018-09-12T17:09:59.324Z,47.55
2018-09-12T17:12:28.315Z,48.45
2018-09-12T17:14:57.283Z,49.11
2018-09-12T17:17:26.246Z,49.03
2018-09-12T17:19:55.212Z,47.55
2018-09-12T17:22:24.122Z,48.13
2018-09-12T17:24:53.048Z,49.31
2018-09-12T17:27:22.137Z,49.99
2018-09-12T17:29:51.109Z,47.52
2018-09-12T17:32:20.059Z,48.95
2018-09-12T17:34:48.977Z,45.68
2018-09-12T17:37:17.970Z,47.69
2018-09-12T17:39:46.960Z,47.73
2018-09-12T17:42:15.935Z,46.03
2018-09-12T17:44:44.804Z,47.58
2018-09-12T17:47:14.380Z,47.26
2018-09-12T17:49:43.347Z,46.30
2018-09-12T17:52:12.259Z,46.73
2018-09-12T17:54:41.256Z,43.36
2018-09-12T17:57:10.359Z,43.28
2018-09-12T17:59:39.333Z,43.83
2018-09-12T18:02:08.256Z,45.95
2018-09-12T18:04:37.165Z,46.28
2018-09-12T18:07:06.084Z,46.85
2018-09-12T18:09:35.097Z,47.05
2018-09-12T18:12:04.027Z,48.37
2018-09-12T18:14:33.633Z,48.55
2018-09-12T18:17:02.528Z,48.63
2018-09-12T18:19:31.455Z,48.37
2018-09-12T18:22:01.062Z,49.42
2018-09-12T18:24:32.072Z,49.32
2018-09-12T18:27:02.940Z,49.86
2018-09-12T18:29:32.625Z,50.13
2018-09-12T18:32:02.421Z,51.49
2018-09-12T18:34:31.737Z,51.09
2018-09-12T18:37:00.793Z,52.47
2018-09-12T18:39:29.691Z,53.02
2018-09-12T18:41:58.976Z,53.75
2018-09-12T18:44:27.860Z,53.51
2018-09-12T18:46:56.737Z,54.04
2018-09-12T18:49:25.724Z,56.22
2018-09-12T18:51:54.613Z,55.94
2018-09-12T18:54:23.592Z,55.55
2018-09-12T18:56:52.806Z,54.11
2018-09-12T18:59:21.736Z,55.58
2018-09-12T19:01:50.628Z,55.86
2018-09-12T19:04:19.536Z,56.42
2018-09-12T19:06:48.555Z,58.09
2018-09-12T19:09:17.488Z,58.78
2018-09-12T19:11:46.403Z,59.29
2018-09-12T19:14:15.392Z,58.51
2018-09-12T19:16:47.694Z,58.75
2018-09-12T19:19:16.658Z,58.98
2018-09-12T19:21:45.608Z,58.28
2018-09-12T19:24:14.772Z,60.06
2018-09-12T19:26:43.712Z,59.60
2018-09-12T19:29:12.652Z,61.02
2018-09-12T19:31:41.695Z,61.25
2018-09-12T19:34:10.775Z,62.96
2018-09-12T19:36:40.257Z,61.42
2018-09-12T19:39:09.947Z,60.60
2018-09-12T19:41:39.604Z,60.51
2018-09-12T19:44:08.718Z,60.67
2018-09-12T19:46:37.749Z,60.27
2018-09-12T19:49:06.769Z,58.81
2018-09-12T19:51:36.033Z,60.97
2018-09-12T19:54:05.160Z,61.58
2018-09-12T19:56:34.129Z,62.22
2018-09-12T19:59:03.052Z,61.38
2018-09-12T20:01:32.058Z,62.74
2018-09-12T20:04:01.031Z,63.12
2018-09-12T20:06:29.954Z,63.81
2018-09-12T20:08:58.890Z,64.07
2018-09-12T20:11:28.153Z,65.28
2018-09-12T20:13:57.382Z,65.17
2018-09-12T20:16:26.301Z,64.89
2018-09-12T20:18:55.257Z,63.25
2018-09-12T20:21:24.375Z,62.92
2018-09-12T20:23:53.664Z,63.34
2018-09-12T20:26:22.807Z,63.28
2018-09-12T20:28:53.499Z,64.09
2018-09-12T20:31:22.945Z,63.31
2018-09-12T20:33:51.856Z,62.91
2018-09-12T20:36:20.783Z,63.25
2018-09-12T20:38:49.727Z,63.48
2018-09-12T20:41:18.891Z,63.83
2018-09-12T20:43:49.221Z,63.56
2018-09-12T20:46:18.352Z,63.84
2018-09-12T20:48:47.384Z,63.02
2018-09-12T20:51:16.572Z,63.35
2018-09-12T20:53:45.452Z,64.66
2018-09-12T20:56:14.577Z,61.86
2018-09-12T20:58:43.501Z,64.00
2018-09-12T21:01:12.534Z,64.09
2018-09-12T21:03:41.476Z,63.93
2018-09-12T21:06:10.925Z,63.87
2018-09-12T21:08:40.019Z,63.96
2018-09-12T21:11:08.987Z,65.09
2018-09-12T21:13:37.900Z,63.12
2018-09-12T21:16:06.831Z,63.42
2018-09-12T21:18:35.749Z,64.43
2018-09-12T21:21:04.830Z,64.25
2018-09-12T21:23:33.833Z,65.90
2018-09-12T21:26:02.736Z,64.26
2018-09-12T21:28:31.769Z,64.53
2018-09-12T21:31:00.677Z,62.26
2018-09-12T21:33:29.685Z,62.49
2018-09-12T21:35:58.625Z,62.85
2018-09-12T21:38:27.609Z,61.34
2018-09-12T21:40:56.579Z,61.74
2018-09-12T21:43:25.620Z,62.30
2018-09-12T21:45:54.556Z,63.80
2018-09-12T21:48:23.483Z,64.67
2018-09-12T21:50:52.400Z,64.07
2018-09-12T21:53:21.294Z,64.62
2018-09-12T21:55:50.182Z,65.16
2018-09-12T21:58:19.315Z,67.12
2018-09-12T22:00:48.420Z,67.23
2018-09-12T22:03:17.381Z,67.55
2018-09-12T22:05:46.321Z,67.81
2018-09-12T22:08:15.283Z,69.56
2018-09-12T22:10:44.165Z,69.37
2018-09-12T22:13:13.467Z,69.89
2018-09-12T22:15:42.645Z,72.16
2018-09-12T22:18:11.499Z,70.35
2018-09-12T22:20:40.374Z,71.38
2018-09-12T22:23:09.328Z,71.96
2018-09-12T22:25:38.214Z,72.55
2018-09-12T22:28:07.299Z,72.47
2018-09-12T22:30:36.198Z,74.27
2018-09-12T22:33:05.244Z,74.13
2018-09-12T22:35:34.131Z,75.78
2018-09-12T22:38:03.010Z,75.41
2018-09-12T22:40:31.920Z,75.47
2018-09-12T22:43:00.828Z,77.15
2018-09-12T22:45:29.679Z,77.85
2018-09-12T22:47:58.607Z,79.15
2018-09-12T22:50:27.548Z,78.46
2018-09-12T22:52:56.492Z,79.37
2018-09-12T22:55:25.443Z,81.26
2018-09-12T22:57:54.328Z,82.02
2018-09-12T23:00:23.413Z,80.55
2018-09-12T23:02:52.340Z,80.61
2018-09-12T23:05:21.216Z,78.95
2018-09-12T23:07:50.301Z,80.70
2018-09-12T23:10:19.190Z,80.76
2018-09-12T23:12:48.164Z,81.40
2018-09-12T23:15:17.036Z,81.19
2018-09-12T23:17:45.907Z,81.22
2018-09-12T23:20:14.802Z,80.17
2018-09-12T23:22:43.650Z,79.36
2018-09-12T23:25:12.607Z,78.96
2018-09-12T23:27:41.510Z,79.95
2018-09-12T23:30:10.552Z,80.87
2018-09-12T23:32:39.553Z,79.97
2018-09-12T23:35:08.431Z,79.83
2018-09-12T23:37:37.304Z,80.65
2018-09-12T23:40:06.324Z,81.06
2018-09-12T23:42:35.220Z,81.55
2018-09-12T23:45:04.167Z,79.60
2018-09-12T23:47:33.044Z,80.93
2018-09-12T23:50:01.964Z,81.58
2018-09-12T23:52:30.911Z,80.89
2018-09-12T23:54:59.763Z,82.12
2018-09-12T23:57:28.627Z,80.79
2018-09-12T23:59:57.615Z,82.28
